Time;durP1;ratioP1;P1;durP2;ratioP2;P2;SDS_P1;SDS_P2;PMS_P1;PMS_P2;Temp;Humidity;BMP_temperature;BMP_pressure;BME280_temperature;BME280_humidity;BME280_pressure;Samples;Min_cycle;Max_cycle;Signal;HPM_P1;HPM_P2
2022/07/02 00:01:51;;;;;;;11.25;6.35;;;14.00;99.90;;;;;;4951866;28;20133;-78
2022/07/02 00:04:20;;;;;;;12.02;6.95;;;13.90;99.90;;;;;;4950495;28;20562;-78
2022/07/02 00:06:48;;;;;;;6.97;6.30;;;13.90;99.90;;;;;;4964412;28;20121;-77
2022/07/02 00:09:14;;;;;;;7.00;6.28;;;13.90;99.90;;;;;;4950721;28;20491;-78
2022/07/02 00:11:41;;;;;;;8.82;6.15;;;13.90;99.90;;;;;;4951286;28;20046;-78
2022/07/02 00:14:08;;;;;;;8.32;6.60;;;13.80;99.90;;;;;;4954342;28;21423;-78
2022/07/02 00:16:38;;;;;;;10.93;7.15;;;13.80;99.90;;;;;;4951119;28;20059;-78
2022/07/02 00:19:04;;;;;;;6.85;6.35;;;13.80;99.90;;;;;;4950677;28;20053;-77
2022/07/02 00:21:30;;;;;;;14.50;6.70;;;13.70;99.90;;;;;;4951178;28;20039;-77
2022/07/02 00:23:55;;;;;;;10.85;7.05;;;13.70;99.90;;;;;;4950646;28;20161;-77
2022/07/02 00:26:43;;;;;;;7.90;6.47;;;13.60;99.90;;;;;;4951183;28;20054;-77
2022/07/02 00:29:30;;;;;;;7.80;7.10;;;13.70;99.90;;;;;;4969000;28;20101;-78
2022/07/02 00:31:57;;;;;;;10.25;7.20;;;13.60;99.90;;;;;;4950331;28;20053;-77
2022/07/02 00:34:25;;;;;;;6.90;6.30;;;13.60;99.90;;;;;;4970350;28;20050;-79
2022/07/02 00:36:51;;;;;;;11.70;6.97;;;13.50;99.90;;;;;;4968994;28;20841;-78
2022/07/02 00:39:17;;;;;;;13.40;7.07;;;13.50;99.90;;;;;;4980380;28;20550;-78
2022/07/02 00:41:47;;;;;;;10.75;7.13;;;13.50;99.90;;;;;;4973788;28;20050;-78
2022/07/02 00:44:13;;;;;;;7.05;6.35;;;13.50;99.90;;;;;;4972867;28;20124;-78
2022/07/02 00:46:40;;;;;;;10.38;7.65;;;13.40;99.90;;;;;;4969941;28;20115;-78
2022/07/02 00:49:08;;;;;;;9.20;7.78;;;13.40;99.90;;;;;;4973576;28;20088;-78
2022/07/02 00:51:34;;;;;;;8.45;6.43;;;13.40;99.90;;;;;;4970190;28;20106;-78
2022/07/02 00:53:59;;;;;;;7.95;7.22;;;13.40;99.90;;;;;;4949092;28;20539;-79
2022/07/02 00:56:26;;;;;;;7.90;6.32;;;13.30;99.90;;;;;;4973385;28;20057;-78
2022/07/02 00:58:52;;;;;;;7.47;6.78;;;13.30;99.90;;;;;;4973137;28;20050;-79
2022/07/02 01:01:18;;;;;;;10.48;7.95;;;13.30;99.90;;;;;;4972462;28;20418;-79
2022/07/02 01:03:45;;;;;;;8.43;7.63;;;13.30;99.90;;;;;;4973418;28;20046;-79
2022/07/02 01:06:13;;;;;;;7.63;6.93;;;13.30;99.90;;;;;;4973169;28;20541;-78
2022/07/02 01:11:25;;;;;;;7.47;6.78;;;13.20;99.90;;;;;;4972678;28;20062;-78
2022/07/02 01:13:53;;;;;;;9.07;8.18;;;13.20;99.90;;;;;;5000576;28;20626;-78
2022/07/02 01:16:19;;;;;;;;;;;13.20;99.90;;;;;;4970564;28;20057;-78
2022/07/02 01:18:45;;;;;;;7.63;6.93;;;13.10;99.90;;;;;;4971917;28;19926;-78
2022/07/02 01:21:11;;;;;;;8.32;7.20;;;13.10;99.90;;;;;;4957038;28;20038;-79
2022/07/02 01:23:36;;;;;;;13.20;7.35;;;13.10;99.90;;;;;;4961340;28;20384;-79
2022/07/02 01:26:02;;;;;;;10.18;7.90;;;13.10;99.90;;;;;;4970588;28;20051;-79
2022/07/02 01:28:27;;;;;;;8.23;7.43;;;13.00;99.90;;;;;;4968706;28;20506;-79
2022/07/02 01:30:53;;;;;;;10.02;6.93;;;12.90;99.90;;;;;;4970908;28;20104;-78
2022/07/02 01:33:19;;;;;;;12.02;7.28;;;12.90;99.90;;;;;;4989266;28;20050;-79
2022/07/02 01:35:44;;;;;;;8.95;8.05;;;12.90;99.90;;;;;;4969047;28;20079;-78
2022/07/02 01:38:10;;;;;;;9.50;7.60;;;12.90;99.90;;;;;;4969141;28;20058;-79
2022/07/02 01:40:37;;;;;;;13.98;8.35;;;12.80;99.90;;;;;;4969103;28;20560;-79
2022/07/02 01:43:03;;;;;;;7.78;7.07;;;12.80;99.90;;;;;;4969283;28;20054;-78
2022/07/02 01:45:29;;;;;;;10.68;7.63;;;12.80;99.90;;;;;;4969463;28;20074;-78
2022/07/02 01:47:55;;;;;;;11.57;8.10;;;12.80;99.90;;;;;;4967560;28;20480;-78
2022/07/02 01:50:20;;;;;;;11.88;8.35;;;12.80;99.90;;;;;;4969608;28;20039;-78
2022/07/02 01:52:46;;;;;;;8.90;8.00;;;12.80;99.90;;;;;;4969007;28;20069;-78
2022/07/02 01:55:12;;;;;;;11.75;8.82;;;12.70;99.90;;;;;;4969328;28;20061;-79
2022/07/02 01:57:38;;;;;;;18.90;8.13;;;12.70;99.90;;;;;;4968886;28;20050;-79
2022/07/02 02:00:06;;;;;;;10.13;8.45;;;12.70;99.90;;;;;;4960276;28;20393;-79
2022/07/02 02:02:33;;;;;;;11.32;8.68;;;12.70;99.90;;;;;;4960462;28;20050;-78
2022/07/02 02:04:59;;;;;;;10.50;8.80;;;12.70;99.90;;;;;;4968631;28;20046;-78
2022/07/02 02:07:28;;;;;;;14.38;8.88;;;12.70;99.90;;;;;;4968490;28;20051;-78
2022/07/02 02:09:53;;;;;;;10.48;8.57;;;12.70;99.90;;;;;;4968578;28;20050;-78
2022/07/02 02:12:19;;;;;;;10.27;8.68;;;12.70;99.90;;;;;;4960727;28;20039;-78
2022/07/02 02:14:45;;;;;;;15.00;8.80;;;12.60;99.90;;;;;;4967906;28;20134;-78
2022/07/02 02:17:11;;;;;;;8.73;7.65;;;12.70;99.90;;;;;;4969772;28;20125;-78
2022/07/02 02:19:37;;;;;;;9.32;8.43;;;12.70;99.90;;;;;;4969626;28;20051;-78
2022/07/02 02:22:02;;;;;;;13.40;9.65;;;12.70;99.90;;;;;;4970021;28;20043;-78
2022/07/02 02:24:28;;;;;;;14.05;8.85;;;12.70;99.90;;;;;;4968533;28;20415;-78
2022/07/02 02:26:54;;;;;;;10.70;8.65;;;12.60;99.90;;;;;;4969078;28;20047;-78
2022/07/02 02:29:19;;;;;;;10.98;9.30;;;12.60;99.90;;;;;;4967237;28;20047;-77
2022/07/02 02:31:45;;;;;;;10.90;9.60;;;12.60;99.90;;;;;;4969756;28;20068;-79
2022/07/02 02:34:11;;;;;;;12.35;9.85;;;12.60;99.90;;;;;;4965114;28;20074;-79
2022/07/02 02:36:36;;;;;;;15.75;10.07;;;12.60;99.90;;;;;;4967465;28;20054;-79
2022/07/02 02:39:02;;;;;;;12.73;9.68;;;12.60;99.90;;;;;;4967526;28;20054;-79
2022/07/02 02:41:28;;;;;;;10.82;8.82;;;12.60;99.90;;;;;;4961001;28;20138;-78
2022/07/02 02:43:53;;;;;;;14.75;10.07;;;12.50;99.90;;;;;;4964694;28;20824;-78
2022/07/02 02:46:19;;;;;;;13.48;10.35;;;12.50;99.90;;;;;;4968742;28;20466;-78
2022/07/02 02:48:45;;;;;;;12.07;10.07;;;12.50;99.90;;;;;;4968757;28;20050;-78
2022/07/02 02:51:14;;;;;;;11.93;10.07;;;12.50;99.90;;;;;;4965681;28;20039;-79
2022/07/02 02:53:42;;;;;;;24.85;11.55;;;12.50;99.90;;;;;;4966708;28;20053;-78
2022/07/02 02:56:08;;;;;;;15.07;10.85;;;12.50;99.90;;;;;;4967522;28;20087;-78
2022/07/02 02:58:34;;;;;;;17.83;11.65;;;12.50;99.90;;;;;;4967506;28;20433;-78
2022/07/02 03:01:00;;;;;;;11.75;10.55;;;12.50;99.90;;;;;;4972434;28;20051;-78
2022/07/02 03:03:26;;;;;;;14.90;12.23;;;12.50;99.90;;;;;;4967349;28;20873;-78
2022/07/02 03:05:52;;;;;;;14.50;12.65;;;12.50;99.90;;;;;;4969221;28;20096;-78
2022/07/02 03:08:18;;;;;;;17.65;11.25;;;12.50;99.90;;;;;;4967757;28;20543;-78
2022/07/02 03:10:44;;;;;;;26.25;13.05;;;12.50;99.90;;;;;;4968647;28;20047;-78
2022/07/02 03:13:11;;;;;;;19.10;12.85;;;12.50;99.90;;;;;;4967769;28;20415;-78
2022/07/02 03:15:36;;;;;;;15.48;13.40;;;12.50;99.90;;;;;;4968651;28;20055;-78
2022/07/02 03:18:02;;;;;;;17.95;14.48;;;12.50;99.90;;;;;;4966658;28;20513;-78
2022/07/02 03:20:28;;;;;;;21.63;13.68;;;12.50;99.90;;;;;;4968526;28;20046;-79
2022/07/02 03:22:53;;;;;;;15.30;13.68;;;12.50;99.90;;;;;;4967332;28;20055;-80
2022/07/02 03:25:19;;;;;;;17.10;13.55;;;12.50;99.90;;;;;;4976751;28;20048;-78
2022/07/02 03:27:45;;;;;;;17.00;14.10;;;12.50;99.90;;;;;;4968321;28;20046;-80
2022/07/02 03:30:11;;;;;;;20.27;14.65;;;12.50;99.90;;;;;;4961273;28;20043;-79
2022/07/02 03:32:36;;;;;;;20.83;14.52;;;12.50;99.90;;;;;;4967301;28;20051;-81
2022/07/02 03:35:02;;;;;;;19.48;14.25;;;12.50;99.90;;;;;;4968107;28;20042;-80
2022/07/02 03:37:28;;;;;;;16.33;14.65;;;12.50;99.90;;;;;;4968062;28;20046;-81
2022/07/02 03:39:55;;;;;;;20.42;15.38;;;12.50;99.90;;;;;;4988498;28;20205;-81
2022/07/02 03:42:21;;;;;;;19.00;14.77;;;12.60;99.90;;;;;;4990426;28;20050;-81
2022/07/02 03:44:47;;;;;;;15.55;13.32;;;12.60;99.90;;;;;;4971694;28;20069;-81
2022/07/02 03:47:13;;;;;;;19.25;15.40;;;12.60;99.90;;;;;;4971482;28;20133;-81
2022/07/02 03:49:38;;;;;;;19.25;15.50;;;12.60;99.90;;;;;;4972500;28;20177;-81
2022/07/02 03:52:04;;;;;;;18.27;14.27;;;12.60;99.90;;;;;;4987028;28;20053;-81
2022/07/02 03:54:30;;;;;;;19.40;14.70;;;12.60;99.90;;;;;;4974964;28;20613;-80
2022/07/02 03:57:03;;;;;;;25.95;15.70;;;12.70;99.90;;;;;;4979828;28;20628;-80
2022/07/02 03:59:29;;;;;;;23.55;15.15;;;12.70;99.90;;;;;;4991765;28;20062;-80
2022/07/02 04:01:54;;;;;;;18.75;13.57;;;12.70;99.90;;;;;;4985545;28;20050;-81
2022/07/02 04:04:20;;;;;;;17.52;15.63;;;12.80;99.90;;;;;;4972040;28;20079;-80
2022/07/02 04:06:46;;;;;;;19.75;14.20;;;12.80;99.90;;;;;;4971103;28;20125;-80
2022/07/02 04:09:12;;;;;;;17.25;14.82;;;12.90;99.90;;;;;;4970102;28;20053;-79
2022/07/02 04:11:39;;;;;;;21.83;15.48;;;12.90;99.90;;;;;;4989883;28;20745;-79
2022/07/02 04:14:05;;;;;;;19.20;15.02;;;13.10;99.90;;;;;;4978241;28;20054;-79
2022/07/02 04:16:30;;;;;;;19.17;15.32;;;13.10;99.90;;;;;;4986237;28;20057;-79
2022/07/02 04:18:56;;;;;;;17.95;16.02;;;13.20;99.90;;;;;;4990266;28;20523;-80
2022/07/02 04:21:21;;;;;;;19.25;16.23;;;13.20;99.90;;;;;;4972363;28;20111;-79
2022/07/02 04:23:47;;;;;;;19.17;16.85;;;13.30;99.90;;;;;;4975248;28;20538;-77
2022/07/02 04:26:13;;;;;;;23.58;16.77;;;13.40;99.90;;;;;;4991658;28;20042;-79
2022/07/02 04:28:38;;;;;;;21.42;15.10;;;13.50;99.90;;;;;;4977685;28;20038;-78
2022/07/02 04:31:04;;;;;;;22.27;17.00;;;13.50;99.90;;;;;;4989562;28;20570;-77
2022/07/02 04:33:31;;;;;;;19.50;17.17;;;13.50;99.90;;;;;;4970637;28;20047;-77
2022/07/02 04:35:56;;;;;;;19.67;16.88;;;13.50;99.90;;;;;;4983643;28;20062;-77
2022/07/02 04:38:22;;;;;;;20.02;17.92;;;13.60;99.90;;;;;;4954980;28;20058;-77
2022/07/02 04:40:48;;;;;;;24.63;17.30;;;13.60;99.90;;;;;;4971627;28;20483;-78
2022/07/02 04:43:14;;;;;;;22.27;17.02;;;13.60;99.90;;;;;;4963759;28;20061;-78
2022/07/02 04:45:39;;;;;;;21.33;19.10;;;13.60;99.90;;;;;;4971802;28;20047;-77
2022/07/02 04:48:05;;;;;;;26.98;18.58;;;13.60;99.90;;;;;;4971156;28;20109;-77
2022/07/02 04:50:31;;;;;;;23.70;18.42;;;13.60;99.90;;;;;;4955635;28;20042;-78
2022/07/02 04:52:56;;;;;;;25.92;19.10;;;13.60;99.90;;;;;;4954027;28;20042;-78
2022/07/02 04:55:22;;;;;;;26.98;19.02;;;13.60;99.90;;;;;;4957243;28;20054;-78
2022/07/02 04:57:47;;;;;;;24.27;19.90;;;13.70;99.90;;;;;;4960107;28;20048;-78
2022/07/02 05:00:14;;;;;;;21.85;18.17;;;13.70;99.90;;;;;;4961373;28;20046;-78
2022/07/02 05:02:39;;;;;;;23.35;19.77;;;13.70;99.90;;;;;;4958939;28;20070;-79
2022/07/02 05:05:05;;;;;;;24.90;19.67;;;13.70;99.90;;;;;;4974360;28;20770;-78
2022/07/02 05:07:31;;;;;;;23.42;18.33;;;13.80;99.90;;;;;;4968016;28;20054;-78
2022/07/02 05:10:00;;;;;;;23.55;17.42;;;13.80;99.90;;;;;;4961036;28;20039;-78
2022/07/02 05:12:25;;;;;;;28.80;18.30;;;13.90;99.90;;;;;;4955934;28;20515;-79
2022/07/02 05:14:51;;;;;;;20.92;17.08;;;13.90;99.90;;;;;;4953554;28;20046;-78
2022/07/02 05:17:17;;;;;;;22.20;17.75;;;13.90;99.90;;;;;;4953218;28;20197;-78
2022/07/02 05:19:43;;;;;;;24.17;18.55;;;13.90;99.90;;;;;;4952806;28;20042;-80
2022/07/02 05:22:09;;;;;;;19.23;16.65;;;14.00;99.90;;;;;;4953732;28;20039;-79
2022/07/02 05:24:34;;;;;;;22.27;16.83;;;14.00;99.90;;;;;;4953963;28;20086;-79
2022/07/02 05:27:00;;;;;;;20.48;17.95;;;14.00;99.90;;;;;;4961354;28;20043;-78
2022/07/02 05:29:26;;;;;;;18.88;16.98;;;14.10;99.90;;;;;;4952475;28;20078;-79
2022/07/02 05:31:51;;;;;;;25.63;17.70;;;14.20;99.90;;;;;;4969905;28;20042;-77
2022/07/02 05:34:17;;;;;;;20.15;16.17;;;14.20;99.90;;;;;;4951574;28;20944;-76
2022/07/02 05:36:43;;;;;;;20.23;14.55;;;14.30;99.90;;;;;;4979693;28;20059;-76
2022/07/02 05:39:08;;;;;;;21.48;15.63;;;14.30;99.90;;;;;;4969643;28;20113;-78
2022/07/02 05:41:34;;;;;;;23.92;15.20;;;14.30;99.90;;;;;;4983931;28;20070;-78
2022/07/02 05:44:00;;;;;;;27.75;14.70;;;14.40;99.90;;;;;;4966901;28;20142;-78
2022/07/02 05:46:26;;;;;;;12.73;11.40;;;14.50;99.90;;;;;;4965702;28;20042;-81
2022/07/02 05:48:51;;;;;;;19.08;14.95;;;14.60;99.90;;;;;;4967367;28;20042;-81
2022/07/02 05:51:17;;;;;;;13.02;11.73;;;14.80;99.90;;;;;;4969355;28;20046;-80
2022/07/02 05:53:42;;;;;;;18.10;12.38;;;15.00;99.90;;;;;;4969837;28;20047;-81
2022/07/02 05:56:08;;;;;;;13.13;11.57;;;15.20;99.90;;;;;;4969520;28;20054;-81
2022/07/02 05:58:35;;;;;;;20.63;12.30;;;15.30;99.90;;;;;;4968782;28;20459;-81
2022/07/02 06:01:00;;;;;;;21.05;12.25;;;15.40;99.90;;;;;;4958564;28;20085;-80
2022/07/02 06:03:26;;;;;;;20.50;12.05;;;15.50;99.90;;;;;;4966550;28;20051;-80
2022/07/02 06:08:38;;;;;;;20.85;12.07;;;15.60;99.90;;;;;;4968597;28;20664;-81
2022/07/02 06:11:06;;;;;;;18.65;10.05;;;15.70;99.90;;;;;;4980198;28;20061;-82
2022/07/02 06:13:32;;;;;;;14.95;9.98;;;15.90;99.90;;;;;;4987081;28;20086;-80
2022/07/02 06:15:57;;;;;;;13.48;10.00;;;16.10;99.90;;;;;;4977080;28;20084;-80
2022/07/02 06:18:24;;;;;;;21.52;10.00;;;16.10;99.90;;;;;;4980775;28;20530;-80
2022/07/02 06:20:51;;;;;;;14.30;10.35;;;16.20;99.90;;;;;;4974147;28;20070;-81
2022/07/02 06:23:19;;;;;;;15.93;9.45;;;16.20;99.90;;;;;;4974374;28;20093;-80
2022/07/02 06:25:45;;;;;;;13.70;9.32;;;16.30;99.90;;;;;;4973040;28;20051;-80
2022/07/02 06:28:10;;;;;;;15.88;9.07;;;16.40;99.90;;;;;;4967590;28;20121;-80
2022/07/02 06:30:36;;;;;;;13.18;9.35;;;16.60;99.90;;;;;;4969472;28;20134;-80
2022/07/02 06:33:02;;;;;;;10.77;9.70;;;16.70;99.90;;;;;;4968021;28;20078;-80
2022/07/02 06:35:27;;;;;;;18.60;9.07;;;16.90;99.90;;;;;;4968101;28;20058;-80
2022/07/02 06:37:53;;;;;;;13.00;8.07;;;17.00;99.90;;;;;;4963853;28;20628;-77
2022/07/02 06:40:19;;;;;;;14.13;8.20;;;17.20;99.90;;;;;;4971586;28;20051;-79
2022/07/02 06:42:45;;;;;;;13.65;8.00;;;17.50;99.90;;;;;;4977204;28;20448;-81
2022/07/02 06:45:11;;;;;;;10.77;6.97;;;17.70;99.90;;;;;;4966345;28;20047;-78
2022/07/02 06:47:41;;;;;;;23.33;6.38;;;17.90;99.90;;;;;;4960818;28;20039;-79
2022/07/02 06:50:07;;;;;;;13.00;6.88;;;18.10;99.90;;;;;;4971869;28;20050;-79
2022/07/02 06:52:33;;;;;;;8.82;6.28;;;18.30;99.90;;;;;;4957400;28;20114;-79
2022/07/02 06:54:59;;;;;;;10.00;5.43;;;18.60;99.90;;;;;;4964015;28;20051;-77
2022/07/02 06:57:25;;;;;;;5.88;5.25;;;18.80;99.90;;;;;;4961521;28;20050;-80
2022/07/02 06:59:52;;;;;;;8.80;4.50;;;19.00;99.90;;;;;;4964464;28;20771;-80
2022/07/02 07:02:17;;;;;;;5.38;4.88;;;19.20;99.90;;;;;;4966949;28;20518;-79
2022/07/02 07:04:43;;;;;;;8.88;4.30;;;19.50;99.90;;;;;;4970421;28;20042;-79
2022/07/02 07:07:11;;;;;;;9.18;4.85;;;19.70;99.90;;;;;;4966374;28;20556;-81
2022/07/02 07:09:39;;;;;;;4.60;4.00;;;20.00;99.90;;;;;;4968500;28;20136;-81
2022/07/02 07:12:06;;;;;;;4.53;3.92;;;20.20;99.90;;;;;;4967842;28;20055;-80
2022/07/02 07:14:35;;;;;;;7.68;4.38;;;20.30;99.90;;;;;;4967159;28;20137;-79
2022/07/02 07:17:01;;;;;;;6.85;3.65;;;20.50;99.90;;;;;;4983016;28;20496;-80
2022/07/02 07:19:27;;;;;;;7.90;3.95;;;20.60;99.90;;;;;;4964635;28;20063;-81
2022/07/02 07:21:52;;;;;;;20.80;4.53;;;20.80;99.90;;;;;;4969429;28;20509;-80
2022/07/02 07:24:18;;;;;;;4.95;4.18;;;21.00;99.90;;;;;;4968571;28;20039;-81
2022/07/02 07:26:45;;;;;;;4.85;3.97;;;21.10;99.90;;;;;;4967504;28;20050;-80
2022/07/02 07:29:12;;;;;;;7.65;3.65;;;21.40;99.90;;;;;;4968011;28;20077;-81
2022/07/02 07:31:37;;;;;;;7.03;3.38;;;21.70;99.90;;;;;;4963593;28;20047;-81
2022/07/02 07:34:04;;;;;;;12.40;3.85;;;21.70;99.90;;;;;;4967846;28;20350;-82
2022/07/02 07:36:30;;;;;;;7.10;3.30;;;21.70;99.90;;;;;;4984237;28;20054;-81
2022/07/02 07:38:56;;;;;;;3.22;2.88;;;21.80;99.40;;;;;;4971876;28;20072;-81
2022/07/02 07:41:22;;;;;;;3.55;2.78;;;21.90;99.70;;;;;;4973838;28;20074;-81
2022/07/02 07:43:49;;;;;;;5.05;2.60;;;21.90;98.20;;;;;;4980169;28;20076;-82
2022/07/02 07:46:15;;;;;;;8.98;2.88;;;22.00;96.40;;;;;;4992470;28;20077;-81
2022/07/02 07:48:41;;;;;;;4.45;2.75;;;22.00;95.30;;;;;;4976610;28;20045;-80
2022/07/02 07:51:06;;;;;;;3.28;2.50;;;21.90;95.20;;;;;;4993472;28;20046;-78
2022/07/02 07:53:32;;;;;;;5.70;2.58;;;21.70;95.30;;;;;;4973041;28;20082;-79
2022/07/02 07:55:58;;;;;;;5.55;2.40;;;21.60;96.70;;;;;;4973809;28;20038;-80
2022/07/02 07:58:24;;;;;;;4.18;2.60;;;21.70;94.70;;;;;;4975902;28;20054;-79
2022/07/02 08:00:49;;;;;;;5.28;2.53;;;22.20;94.60;;;;;;4987942;28;20447;-79
2022/07/02 08:03:19;;;;;;;7.00;2.65;;;22.40;93.80;;;;;;4971861;28;20042;-78
2022/07/02 08:05:46;;;;;;;6.50;2.15;;;22.70;87.20;;;;;;4968410;28;20057;-79
2022/07/02 08:08:13;;;;;;;3.30;2.40;;;22.80;87.70;;;;;;4974703;28;20089;-79
2022/07/02 08:10:39;;;;;;;4.07;2.40;;;23.10;83.70;;;;;;4974081;28;20042;-79
2022/07/02 08:13:04;;;;;;;5.57;2.22;;;23.20;78.00;;;;;;4973898;28;20054;-77
2022/07/02 08:15:30;;;;;;;4.38;2.75;;;23.30;76.10;;;;;;4989035;28;20083;-79
2022/07/02 08:17:56;;;;;;;5.85;2.28;;;23.50;73.10;;;;;;4991863;28;20046;-80
2022/07/02 08:20:22;;;;;;;5.65;2.25;;;23.50;70.00;;;;;;4959900;28;20400;-75
2022/07/02 08:22:49;;;;;;;2.40;1.92;;;23.50;66.80;;;;;;4978327;28;20042;-78
2022/07/02 08:25:15;;;;;;;8.00;2.88;;;23.60;68.70;;;;;;4991115;28;20576;-77
2022/07/02 08:27:42;;;;;;;3.35;2.28;;;23.80;67.00;;;;;;4992090;28;20058;-78
2022/07/02 08:30:09;;;;;;;3.57;2.47;;;23.90;67.70;;;;;;4992069;28;20406;-80
2022/07/02 08:32:35;;;;;;;4.35;2.05;;;24.20;68.60;;;;;;4976532;28;20861;-79
2022/07/02 08:35:01;;;;;;;7.18;1.77;;;24.00;66.70;;;;;;4988755;28;20507;-78
2022/07/02 08:37:27;;;;;;;1.73;1.52;;;24.10;63.30;;;;;;4974430;28;20078;-79
2022/07/02 08:39:53;;;;;;;3.83;2.22;;;24.20;63.50;;;;;;4974782;28;20066;-78
2022/07/02 08:42:30;;;;;;;5.63;2.17;;;24.20;62.90;;;;;;4973396;28;20058;-78
2022/07/02 08:44:58;;;;;;;5.82;1.77;;;24.20;60.60;;;;;;4988262;28;20118;-76
2022/07/02 08:47:25;;;;;;;19.92;3.30;;;24.30;62.60;;;;;;4988714;28;20058;-77
2022/07/02 08:49:54;;;;;;;2.80;1.50;;;24.30;60.90;;;;;;4972964;28;20046;-80
2022/07/02 08:52:21;;;;;;;3.70;1.75;;;24.20;58.80;;;;;;4972903;28;20041;-81
2022/07/02 08:54:47;;;;;;;10.93;2.05;;;24.20;58.90;;;;;;4985537;28;20568;-79
2022/07/02 08:57:14;;;;;;;2.63;1.20;;;24.40;58.90;;;;;;4975237;28;20053;-79
2022/07/02 08:59:41;;;;;;;1.38;1.30;;;24.50;58.10;;;;;;4970765;28;20525;-80
2022/07/02 09:02:13;;;;;;;3.20;1.73;;;24.50;57.70;;;;;;4989565;28;20483;-80
2022/07/02 09:04:48;;;;;;;8.77;1.90;;;24.80;58.40;;;;;;4970552;28;20059;-79
2022/07/02 09:07:15;;;;;;;1.77;1.67;;;24.80;56.70;;;;;;4973284;28;20104;-76
2022/07/02 09:09:42;;;;;;;2.75;1.67;;;24.80;56.20;;;;;;4972693;28;20105;-81
2022/07/02 09:12:13;;;;;;;2.20;1.20;;;24.80;56.80;;;;;;4985542;28;20050;-80
2022/07/02 09:14:40;;;;;;;3.28;2.10;;;24.90;55.70;;;;;;4985297;28;20074;-79
2022/07/02 09:17:07;;;;;;;3.80;1.60;;;24.90;56.80;;;;;;4975045;28;20121;-80
2022/07/02 09:19:34;;;;;;;3.70;1.65;;;25.20;56.50;;;;;;4971308;28;20054;-79
2022/07/02 09:21:59;;;;;;;8.30;2.05;;;25.30;56.40;;;;;;4968451;28;20476;-79
2022/07/02 09:24:28;;;;;;;2.92;2.20;;;25.20;55.00;;;;;;4991302;28;20092;-78
2022/07/02 09:27:10;;;;;;;1.98;1.67;;;25.20;54.30;;;;;;4973781;28;20046;-77
2022/07/02 09:29:55;;;;;;;3.50;1.65;;;25.30;51.80;;;;;;4966768;28;20043;-77
2022/07/02 09:32:21;;;;;;;6.60;1.50;;;25.40;53.50;;;;;;4973848;28;20045;-79
2022/07/02 09:34:53;;;;;;;5.20;1.17;;;25.30;54.20;;;;;;4972398;28;20045;-79
2022/07/02 09:37:23;;;;;;;2.03;1.60;;;25.20;53.00;;;;;;4958650;28;20486;-77
2022/07/02 09:39:51;;;;;;;2.65;1.65;;;25.20;52.10;;;;;;4963000;28;20121;-80
2022/07/02 09:42:28;;;;;;;6.95;1.27;;;25.20;53.00;;;;;;4971975;28;20061;-80
2022/07/02 09:44:54;;;;;;;5.38;1.40;;;25.00;52.10;;;;;;4948146;28;20055;-81
2022/07/02 09:47:34;;;;;;;2.53;1.83;;;25.00;52.50;;;;;;4970794;28;20098;-78
2022/07/02 09:50:05;;;;;;;4.13;1.70;;;24.90;51.40;;;;;;4966313;28;20059;-73
2022/07/02 09:52:32;;;;;;;2.15;1.80;;;24.90;51.80;;;;;;4965671;28;20843;-80
2022/07/02 09:54:59;;;;;;;3.05;1.48;;;25.00;53.20;;;;;;4962001;28;20042;-78
2022/07/02 09:57:26;;;;;;;1.80;1.70;;;25.00;53.40;;;;;;4954741;28;20608;-77
2022/07/02 09:59:52;;;;;;;1.25;1.10;;;25.10;53.70;;;;;;4952448;28;20126;-77
2022/07/02 10:02:25;;;;;;;1.73;1.55;;;25.00;53.00;;;;;;4953427;28;20055;-77
2022/07/02 10:04:52;;;;;;;5.43;1.90;;;25.10;52.50;;;;;;4952325;28;20412;-77
2022/07/02 10:07:22;;;;;;;6.03;2.08;;;25.20;53.00;;;;;;4968844;28;20047;-80
2022/07/02 10:09:52;;;;;;;2.03;1.73;;;25.10;53.40;;;;;;4970103;28;20058;-78
2022/07/02 10:12:19;;;;;;;3.15;1.35;;;25.20;53.40;;;;;;4952299;28;20062;-73
2022/07/02 10:14:49;;;;;;;3.45;1.73;;;25.30;53.70;;;;;;4960144;28;20093;-77
2022/07/02 10:17:16;;;;;;;5.75;2.00;;;25.20;52.00;;;;;;4951209;28;20067;-78
2022/07/02 10:19:42;;;;;;;3.15;1.75;;;25.00;52.80;;;;;;4967898;28;20073;-76
2022/07/02 10:22:08;;;;;;;3.80;1.80;;;25.10;53.00;;;;;;4966550;28;20503;-75
2022/07/02 10:24:36;;;;;;;6.20;1.73;;;25.20;53.80;;;;;;4946305;28;20047;-76
2022/07/02 10:27:04;;;;;;;3.78;2.05;;;25.50;54.10;;;;;;4966196;28;20078;-77
2022/07/02 10:29:30;;;;;;;5.97;2.15;;;25.70;53.90;;;;;;4947119;28;20039;-77
2022/07/02 10:32:11;;;;;;;3.75;1.92;;;25.80;54.50;;;;;;4951590;28;20758;-78
2022/07/02 10:34:50;;;;;;;3.63;1.75;;;26.00;54.50;;;;;;4951316;28;20615;-78
2022/07/02 10:37:16;;;;;;;3.70;1.95;;;26.00;53.40;;;;;;4980810;28;20054;-77
2022/07/02 10:39:43;;;;;;;1.65;1.55;;;25.80;52.10;;;;;;4988485;28;20104;-77
2022/07/02 10:42:09;;;;;;;1.70;1.60;;;25.70;52.80;;;;;;4971928;28;20376;-76
2022/07/02 10:44:42;;;;;;;2.97;1.70;;;25.60;53.10;;;;;;4955751;28;20082;-77
2022/07/02 10:47:26;;;;;;;2.15;1.70;;;25.60;52.70;;;;;;4955691;28;20086;-76
2022/07/02 10:50:01;;;;;;;4.15;1.65;;;25.60;51.60;;;;;;4971573;28;20051;-77
2022/07/02 10:52:48;;;;;;;3.00;2.25;;;25.50;52.30;;;;;;4951145;28;20065;-76
2022/07/02 10:55:27;;;;;;;3.87;2.10;;;25.40;52.00;;;;;;4970163;28;20061;-76
2022/07/02 10:57:57;;;;;;;4.45;1.52;;;25.40;52.90;;;;;;4971242;28;20092;-76
2022/07/02 11:00:29;;;;;;;5.22;1.70;;;25.40;53.50;;;;;;4971231;28;20050;-76
2022/07/02 11:03:15;;;;;;;2.55;1.60;;;25.40;54.80;;;;;;4968089;28;20046;-77
2022/07/02 11:06:03;;;;;;;3.80;2.38;;;25.30;53.00;;;;;;4969284;28;20440;-78
2022/07/02 11:08:31;;;;;;;;;;;25.20;54.50;;;;;;4970822;28;20049;-78
2022/07/02 11:10:58;;;;;;;5.28;2.45;;;25.20;55.10;;;;;;4970512;28;20036;-78
2022/07/02 11:13:35;;;;;;;2.05;1.83;;;24.80;54.70;;;;;;4970119;28;20081;-78
2022/07/02 11:16:00;;;;;;;2.85;2.08;;;24.70;54.70;;;;;;4988700;28;20405;-79
2022/07/02 11:18:32;;;;;;;2.95;1.65;;;24.80;55.20;;;;;;4969584;28;20056;-77
2022/07/02 11:20:58;;;;;;;13.63;3.33;;;24.80;55.70;;;;;;4972626;28;20561;-76
2022/07/02 11:23:25;;;;;;;3.15;1.95;;;24.70;54.90;;;;;;4969399;28;20125;-76
2022/07/02 11:25:51;;;;;;;5.03;2.47;;;24.70;55.00;;;;;;4960152;28;20061;-76
2022/07/02 11:28:17;;;;;;;4.38;2.28;;;24.60;55.40;;;;;;4967301;28;20462;-78
2022/07/02 11:30:42;;;;;;;11.65;2.97;;;24.50;55.30;;;;;;4968568;28;20047;-77
2022/07/02 11:33:13;;;;;;;3.45;2.00;;;24.40;55.30;;;;;;4971489;28;20042;-77
2022/07/02 11:35:42;;;;;;;4.07;2.13;;;24.20;56.90;;;;;;4965553;28;20055;-78
2022/07/02 11:38:07;;;;;;;5.28;2.42;;;23.90;56.70;;;;;;4961817;28;20420;-77
2022/07/02 11:40:33;;;;;;;4.00;2.75;;;23.90;57.10;;;;;;4964581;28;20050;-78
2022/07/02 11:43:00;;;;;;;4.65;1.52;;;24.00;57.70;;;;;;4968937;28;20050;-77
2022/07/02 11:45:25;;;;;;;4.20;2.08;;;24.30;57.60;;;;;;4968964;28;20055;-80
2022/07/02 11:47:52;;;;;;;3.17;1.98;;;24.10;57.30;;;;;;4986210;28;20039;-78
2022/07/02 11:50:31;;;;;;;8.07;2.40;;;24.20;57.90;;;;;;4967417;28;20059;-79
2022/07/02 11:52:57;;;;;;;6.80;1.95;;;24.30;60.20;;;;;;4981548;28;20443;-80
2022/07/02 11:55:24;;;;;;;4.05;2.63;;;24.50;58.30;;;;;;4966893;28;20130;-80
2022/07/02 11:57:51;;;;;;;6.10;2.50;;;24.50;57.40;;;;;;4983566;28;20102;-79
2022/07/02 12:00:17;;;;;;;6.30;2.67;;;24.60;57.10;;;;;;4964088;28;20447;-77
2022/07/02 12:02:43;;;;;;;3.33;2.10;;;24.60;56.80;;;;;;4966524;28;20051;-77
2022/07/02 12:05:17;;;;;;;8.13;2.38;;;24.50;56.20;;;;;;4962677;28;20117;-82
2022/07/02 12:07:43;;;;;;;4.97;2.22;;;24.50;55.10;;;;;;4966467;28;20043;-78
2022/07/02 12:10:11;;;;;;;4.60;2.55;;;24.50;56.50;;;;;;4982750;28;20046;-78
2022/07/02 12:12:36;;;;;;;;;;;24.50;56.30;;;;;;4975932;28;20047;-78
2022/07/02 12:15:05;;;;;;;9.68;2.83;;;24.50;57.10;;;;;;4963606;28;20395;-77
2022/07/02 12:17:37;;;;;;;7.00;2.45;;;24.60;56.80;;;;;;4981232;28;20049;-78
2022/07/02 12:20:05;;;;;;;3.97;2.30;;;24.70;56.80;;;;;;4965597;28;20061;-78
2022/07/02 12:22:33;;;;;;;2.75;1.90;;;24.80;56.50;;;;;;4966796;28;20051;-78
2022/07/02 12:25:01;;;;;;;2.45;1.92;;;24.80;57.40;;;;;;4970200;28;20074;-78
2022/07/02 12:27:27;;;;;;;3.78;2.65;;;24.80;58.10;;;;;;4975428;28;20050;-77
2022/07/02 12:29:53;;;;;;;3.90;2.50;;;24.90;57.60;;;;;;4950638;28;20541;-77
2022/07/02 12:32:24;;;;;;;9.77;2.50;;;24.90;56.10;;;;;;4969723;28;20043;-78
2022/07/02 12:34:55;;;;;;;2.60;2.38;;;25.00;57.50;;;;;;4970144;28;20163;-78
2022/07/02 12:37:32;;;;;;;3.70;2.88;;;24.90;56.60;;;;;;4985861;28;20053;-78
2022/07/02 12:40:07;;;;;;;2.67;2.35;;;24.70;54.60;;;;;;4973461;28;20038;-78
2022/07/02 12:42:48;;;;;;;4.97;3.08;;;24.60;56.50;;;;;;4973518;28;20098;-79
2022/07/02 12:45:24;;;;;;;3.70;2.78;;;24.50;56.50;;;;;;4980777;28;20054;-78
2022/07/02 12:47:58;;;;;;;9.23;2.40;;;24.30;59.90;;;;;;4990887;28;20050;-77